sensor_id;sensor_type;location;lat;lon;timestamp;P1;durP1;ratioP1;P2;durP2;ratioP2
12165;SDS011;6146;48.128;11.476;2024-01-25T00:01:29;9.60;;;2.40;;
12165;SDS011;6146;48.128;11.476;2024-01-25T00:03:55;7.97;;;2.80;;
12165;SDS011;6146;48.128;11.476;2024-01-25T00:06:20;6.73;;;2.23;;
12165;SDS011;6146;48.128;11.476;2024-01-25T00:08:46;6.53;;;2.63;;
12165;SDS011;6146;48.128;11.476;2024-01-25T00:11:12;8.00;;;2.77;;
12165;SDS011;6146;48.128;11.476;2024-01-25T00:13:37;5.33;;;2.10;;
12165;SDS011;6146;48.128;11.476;2024-01-25T00:16:04;6.87;;;2.20;;
12165;SDS011;6146;48.128;11.476;2024-01-25T00:18:29;6.87;;;3.07;;
12165;SDS011;6146;48.128;11.476;2024-01-25T00:20:55;8.00;;;2.70;;
12165;SDS011;6146;48.128;11.476;2024-01-25T00:23:21;5.73;;;2.33;;
12165;SDS011;6146;48.128;11.476;2024-01-25T00:25:46;4.60;;;2.00;;
12165;SDS011;6146;48.128;11.476;2024-01-25T00:28:12;8.87;;;2.40;;
12165;SDS011;6146;48.128;11.476;2024-01-25T00:30:38;5.57;;;1.90;;
12165;SDS011;6146;48.128;11.476;2024-01-25T00:33:04;6.07;;;1.67;;
12165;SDS011;6146;48.128;11.476;2024-01-25T00:35:30;9.10;;;2.63;;
12165;SDS011;6146;48.128;11.476;2024-01-25T00:37:56;2.87;;;1.83;;
12165;SDS011;6146;48.128;11.476;2024-01-25T00:40:22;7.10;;;2.20;;
12165;SDS011;6146;48.128;11.476;2024-01-25T00:42:47;6.87;;;2.10;;
12165;SDS011;6146;48.128;11.476;2024-01-25T00:45:20;9.33;;;2.00;;
12165;SDS011;6146;48.128;11.476;2024-01-25T00:47:47;7.40;;;2.33;;
12165;SDS011;6146;48.128;11.476;2024-01-25T00:50:13;6.33;;;2.30;;
12165;SDS011;6146;48.128;11.476;2024-01-25T00:52:39;7.07;;;2.23;;
12165;SDS011;6146;48.128;11.476;2024-01-25T00:55:05;7.03;;;2.73;;
12165;SDS011;6146;48.128;11.476;2024-01-25T00:57:31;6.63;;;2.40;;
12165;SDS011;6146;48.128;11.476;2024-01-25T00:59:58;4.17;;;2.37;;
12165;SDS011;6146;48.128;11.476;2024-01-25T01:02:25;7.47;;;2.90;;
12165;SDS011;6146;48.128;11.476;2024-01-25T01:04:55;6.30;;;2.60;;
12165;SDS011;6146;48.128;11.476;2024-01-25T01:07:24;7.00;;;2.77;;
12165;SDS011;6146;48.128;11.476;2024-01-25T01:09:50;7.90;;;2.17;;
12165;SDS011;6146;48.128;11.476;2024-01-25T01:12:15;6.20;;;2.47;;
12165;SDS011;6146;48.128;11.476;2024-01-25T01:14:41;8.20;;;2.77;;
12165;SDS011;6146;48.128;11.476;2024-01-25T01:17:07;6.53;;;2.57;;
12165;SDS011;6146;48.128;11.476;2024-01-25T01:19:33;7.00;;;2.80;;
12165;SDS011;6146;48.128;11.476;2024-01-25T01:21:58;5.63;;;2.17;;
12165;SDS011;6146;48.128;11.476;2024-01-25T01:24:24;7.23;;;2.37;;
12165;SDS011;6146;48.128;11.476;2024-01-25T01:26:49;10.63;;;2.90;;
12165;SDS011;6146;48.128;11.476;2024-01-25T01:29:15;4.40;;;2.10;;
12165;SDS011;6146;48.128;11.476;2024-01-25T01:31:41;6.50;;;2.03;;
12165;SDS011;6146;48.128;11.476;2024-01-25T01:34:07;10.50;;;2.67;;
12165;SDS011;6146;48.128;11.476;2024-01-25T01:36:32;8.30;;;2.70;;
12165;SDS011;6146;48.128;11.476;2024-01-25T01:38:58;5.00;;;2.10;;
12165;SDS011;6146;48.128;11.476;2024-01-25T01:41:23;8.63;;;2.43;;
12165;SDS011;6146;48.128;11.476;2024-01-25T01:43:52;9.47;;;2.53;;
12165;SDS011;6146;48.128;11.476;2024-01-25T01:48:56;6.30;;;2.13;;
12165;SDS011;6146;48.128;11.476;2024-01-25T01:51:21;4.53;;;2.70;;
12165;SDS011;6146;48.128;11.476;2024-01-25T01:53:47;6.23;;;2.70;;
12165;SDS011;6146;48.128;11.476;2024-01-25T01:56:13;4.27;;;2.13;;
12165;SDS011;6146;48.128;11.476;2024-01-25T01:58:40;5.90;;;2.10;;
12165;SDS011;6146;48.128;11.476;2024-01-25T02:01:06;8.37;;;2.77;;
12165;SDS011;6146;48.128;11.476;2024-01-25T02:03:32;10.37;;;2.67;;
12165;SDS011;6146;48.128;11.476;2024-01-25T02:05:57;5.20;;;2.27;;
12165;SDS011;6146;48.128;11.476;2024-01-25T02:08:27;4.30;;;1.90;;
12165;SDS011;6146;48.128;11.476;2024-01-25T02:10:54;6.17;;;2.50;;
12165;SDS011;6146;48.128;11.476;2024-01-25T02:13:20;8.50;;;2.57;;
12165;SDS011;6146;48.128;11.476;2024-01-25T02:15:46;5.63;;;2.27;;
12165;SDS011;6146;48.128;11.476;2024-01-25T02:18:11;7.13;;;2.13;;
12165;SDS011;6146;48.128;11.476;2024-01-25T02:20:37;7.93;;;2.03;;
12165;SDS011;6146;48.128;11.476;2024-01-25T02:23:03;8.90;;;2.30;;
12165;SDS011;6146;48.128;11.476;2024-01-25T02:25:29;5.43;;;2.17;;
12165;SDS011;6146;48.128;11.476;2024-01-25T02:27:54;7.30;;;2.10;;
12165;SDS011;6146;48.128;11.476;2024-01-25T02:30:20;6.90;;;2.10;;
12165;SDS011;6146;48.128;11.476;2024-01-25T02:32:45;5.47;;;2.10;;
12165;SDS011;6146;48.128;11.476;2024-01-25T02:35:11;8.10;;;2.33;;
12165;SDS011;6146;48.128;11.476;2024-01-25T02:37:36;6.43;;;2.20;;
12165;SDS011;6146;48.128;11.476;2024-01-25T02:40:02;4.63;;;1.97;;
12165;SDS011;6146;48.128;11.476;2024-01-25T02:42:28;7.47;;;2.80;;
12165;SDS011;6146;48.128;11.476;2024-01-25T02:44:54;6.63;;;2.13;;
12165;SDS011;6146;48.128;11.476;2024-01-25T02:47:19;8.43;;;3.27;;
12165;SDS011;6146;48.128;11.476;2024-01-25T02:49:45;7.77;;;2.20;;
12165;SDS011;6146;48.128;11.476;2024-01-25T02:52:10;6.13;;;2.03;;
12165;SDS011;6146;48.128;11.476;2024-01-25T02:54:36;9.30;;;2.30;;
12165;SDS011;6146;48.128;11.476;2024-01-25T02:57:02;3.60;;;2.13;;
12165;SDS011;6146;48.128;11.476;2024-01-25T02:59:27;8.73;;;2.50;;
12165;SDS011;6146;48.128;11.476;2024-01-25T03:01:53;7.43;;;2.87;;
12165;SDS011;6146;48.128;11.476;2024-01-25T03:04:19;5.40;;;2.30;;
12165;SDS011;6146;48.128;11.476;2024-01-25T03:06:45;4.83;;;2.00;;
12165;SDS011;6146;48.128;11.476;2024-01-25T03:09:10;6.17;;;2.60;;
12165;SDS011;6146;48.128;11.476;2024-01-25T03:11:36;6.33;;;2.43;;
12165;SDS011;6146;48.128;11.476;2024-01-25T03:14:01;9.43;;;3.03;;
12165;SDS011;6146;48.128;11.476;2024-01-25T03:16:27;5.37;;;2.43;;
12165;SDS011;6146;48.128;11.476;2024-01-25T03:18:53;6.03;;;2.27;;
12165;SDS011;6146;48.128;11.476;2024-01-25T03:21:18;8.40;;;2.40;;
12165;SDS011;6146;48.128;11.476;2024-01-25T03:23:45;6.17;;;2.10;;
12165;SDS011;6146;48.128;11.476;2024-01-25T03:26:11;5.10;;;2.00;;
12165;SDS011;6146;48.128;11.476;2024-01-25T03:28:36;8.33;;;2.73;;
12165;SDS011;6146;48.128;11.476;2024-01-25T03:31:04;5.30;;;2.40;;
12165;SDS011;6146;48.128;11.476;2024-01-25T03:33:29;6.57;;;2.57;;
12165;SDS011;6146;48.128;11.476;2024-01-25T03:35:57;6.07;;;2.33;;
12165;SDS011;6146;48.128;11.476;2024-01-25T03:38:27;5.33;;;2.20;;
12165;SDS011;6146;48.128;11.476;2024-01-25T03:40:53;5.93;;;2.13;;
12165;SDS011;6146;48.128;11.476;2024-01-25T03:43:19;4.43;;;2.20;;
12165;SDS011;6146;48.128;11.476;2024-01-25T03:45:44;6.23;;;2.23;;
12165;SDS011;6146;48.128;11.476;2024-01-25T03:48:10;5.57;;;2.67;;
12165;SDS011;6146;48.128;11.476;2024-01-25T03:50:35;9.00;;;2.03;;
12165;SDS011;6146;48.128;11.476;2024-01-25T03:53:01;5.43;;;2.20;;
12165;SDS011;6146;48.128;11.476;2024-01-25T03:55:26;4.20;;;2.07;;
12165;SDS011;6146;48.128;11.476;2024-01-25T03:57:52;3.73;;;1.90;;
12165;SDS011;6146;48.128;11.476;2024-01-25T04:00:18;7.27;;;2.43;;
12165;SDS011;6146;48.128;11.476;2024-01-25T04:02:43;8.40;;;2.03;;
12165;SDS011;6146;48.128;11.476;2024-01-25T04:05:09;5.40;;;2.20;;
12165;SDS011;6146;48.128;11.476;2024-01-25T04:07:35;7.83;;;2.20;;
12165;SDS011;6146;48.128;11.476;2024-01-25T04:10:01;8.63;;;2.70;;
12165;SDS011;6146;48.128;11.476;2024-01-25T04:12:27;7.27;;;2.33;;
12165;SDS011;6146;48.128;11.476;2024-01-25T04:14:52;5.57;;;2.30;;
12165;SDS011;6146;48.128;11.476;2024-01-25T04:17:18;7.87;;;2.70;;
12165;SDS011;6146;48.128;11.476;2024-01-25T04:19:43;9.03;;;3.07;;
12165;SDS011;6146;48.128;11.476;2024-01-25T04:22:09;6.20;;;2.20;;
12165;SDS011;6146;48.128;11.476;2024-01-25T04:24:34;6.30;;;2.10;;
12165;SDS011;6146;48.128;11.476;2024-01-25T04:27:00;5.33;;;2.00;;
12165;SDS011;6146;48.128;11.476;2024-01-25T04:29:25;7.93;;;2.13;;
12165;SDS011;6146;48.128;11.476;2024-01-25T04:31:51;4.50;;;2.17;;
12165;SDS011;6146;48.128;11.476;2024-01-25T04:34:16;6.50;;;2.00;;
12165;SDS011;6146;48.128;11.476;2024-01-25T04:36:42;5.07;;;2.40;;
12165;SDS011;6146;48.128;11.476;2024-01-25T04:39:08;8.40;;;2.13;;
12165;SDS011;6146;48.128;11.476;2024-01-25T04:41:33;5.00;;;1.80;;
12165;SDS011;6146;48.128;11.476;2024-01-25T04:43:59;8.73;;;2.30;;
12165;SDS011;6146;48.128;11.476;2024-01-25T04:46:24;5.10;;;2.40;;
12165;SDS011;6146;48.128;11.476;2024-01-25T04:48:50;7.40;;;1.80;;
12165;SDS011;6146;48.128;11.476;2024-01-25T04:51:16;4.70;;;2.37;;
12165;SDS011;6146;48.128;11.476;2024-01-25T04:53:42;5.07;;;1.77;;
12165;SDS011;6146;48.128;11.476;2024-01-25T04:56:07;6.13;;;2.10;;
12165;SDS011;6146;48.128;11.476;2024-01-25T04:58:33;6.03;;;2.10;;
12165;SDS011;6146;48.128;11.476;2024-01-25T05:00:59;6.17;;;2.37;;
12165;SDS011;6146;48.128;11.476;2024-01-25T05:03:25;4.27;;;1.90;;
12165;SDS011;6146;48.128;11.476;2024-01-25T05:05:51;4.07;;;1.70;;
12165;SDS011;6146;48.128;11.476;2024-01-25T05:08:16;4.67;;;1.87;;
12165;SDS011;6146;48.128;11.476;2024-01-25T05:10:42;5.73;;;1.80;;
12165;SDS011;6146;48.128;11.476;2024-01-25T05:13:08;4.10;;;1.50;;
12165;SDS011;6146;48.128;11.476;2024-01-25T05:15:34;3.53;;;1.57;;
12165;SDS011;6146;48.128;11.476;2024-01-25T05:17:59;6.57;;;1.83;;
12165;SDS011;6146;48.128;11.476;2024-01-25T05:20:26;4.77;;;1.70;;
12165;SDS011;6146;48.128;11.476;2024-01-25T05:22:58;3.57;;;1.60;;
12165;SDS011;6146;48.128;11.476;2024-01-25T05:25:24;4.03;;;1.67;;
12165;SDS011;6146;48.128;11.476;2024-01-25T05:27:51;6.40;;;2.00;;
12165;SDS011;6146;48.128;11.476;2024-01-25T05:30:17;5.47;;;2.00;;
12165;SDS011;6146;48.128;11.476;2024-01-25T05:32:43;5.27;;;2.00;;
12165;SDS011;6146;48.128;11.476;2024-01-25T05:35:09;5.30;;;2.23;;
12165;SDS011;6146;48.128;11.476;2024-01-25T05:37:34;7.07;;;1.87;;
12165;SDS011;6146;48.128;11.476;2024-01-25T05:40:00;5.73;;;2.00;;
12165;SDS011;6146;48.128;11.476;2024-01-25T05:42:26;4.60;;;2.10;;
12165;SDS011;6146;48.128;11.476;2024-01-25T05:44:51;6.57;;;1.93;;
12165;SDS011;6146;48.128;11.476;2024-01-25T05:47:17;4.67;;;2.00;;
12165;SDS011;6146;48.128;11.476;2024-01-25T05:49:42;4.83;;;2.20;;
12165;SDS011;6146;48.128;11.476;2024-01-25T05:52:08;5.17;;;2.43;;
12165;SDS011;6146;48.128;11.476;2024-01-25T05:54:33;9.90;;;2.63;;
12165;SDS011;6146;48.128;11.476;2024-01-25T05:56:59;5.80;;;2.10;;
12165;SDS011;6146;48.128;11.476;2024-01-25T05:59:25;8.63;;;2.50;;
12165;SDS011;6146;48.128;11.476;2024-01-25T06:01:50;8.33;;;2.20;;
12165;SDS011;6146;48.128;11.476;2024-01-25T06:04:16;9.17;;;2.10;;
12165;SDS011;6146;48.128;11.476;2024-01-25T06:06:41;5.63;;;1.40;;
12165;SDS011;6146;48.128;11.476;2024-01-25T06:09:07;5.23;;;2.00;;
12165;SDS011;6146;48.128;11.476;2024-01-25T06:11:33;8.03;;;2.50;;
12165;SDS011;6146;48.128;11.476;2024-01-25T06:14:00;5.57;;;2.20;;
12165;SDS011;6146;48.128;11.476;2024-01-25T06:16:26;7.53;;;2.20;;
12165;SDS011;6146;48.128;11.476;2024-01-25T06:18:51;7.00;;;2.07;;
12165;SDS011;6146;48.128;11.476;2024-01-25T06:21:17;8.03;;;2.43;;
12165;SDS011;6146;48.128;11.476;2024-01-25T06:23:42;6.47;;;2.30;;
12165;SDS011;6146;48.128;11.476;2024-01-25T06:26:08;5.47;;;2.17;;
12165;SDS011;6146;48.128;11.476;2024-01-25T06:28:33;7.97;;;2.60;;
12165;SDS011;6146;48.128;11.476;2024-01-25T06:31:00;6.00;;;2.33;;
12165;SDS011;6146;48.128;11.476;2024-01-25T06:33:26;10.90;;;3.10;;
12165;SDS011;6146;48.128;11.476;2024-01-25T06:35:52;8.33;;;2.40;;
12165;SDS011;6146;48.128;11.476;2024-01-25T06:38:19;4.43;;;2.10;;
12165;SDS011;6146;48.128;11.476;2024-01-25T06:40:44;8.00;;;2.57;;
12165;SDS011;6146;48.128;11.476;2024-01-25T06:43:10;6.40;;;2.40;;
12165;SDS011;6146;48.128;11.476;2024-01-25T06:45:36;5.17;;;2.30;;
12165;SDS011;6146;48.128;11.476;2024-01-25T06:48:04;5.03;;;2.13;;
12165;SDS011;6146;48.128;11.476;2024-01-25T06:50:31;4.43;;;2.17;;
12165;SDS011;6146;48.128;11.476;2024-01-25T06:52:57;6.27;;;2.50;;
12165;SDS011;6146;48.128;11.476;2024-01-25T06:55:22;8.37;;;3.07;;
12165;SDS011;6146;48.128;11.476;2024-01-25T06:57:48;9.23;;;2.40;;
12165;SDS011;6146;48.128;11.476;2024-01-25T07:00:14;8.63;;;3.07;;
12165;SDS011;6146;48.128;11.476;2024-01-25T07:02:40;8.67;;;2.67;;
12165;SDS011;6146;48.128;11.476;2024-01-25T07:05:07;8.07;;;2.87;;
12165;SDS011;6146;48.128;11.476;2024-01-25T07:07:33;8.23;;;2.43;;
12165;SDS011;6146;48.128;11.476;2024-01-25T07:09:59;7.77;;;2.47;;
12165;SDS011;6146;48.128;11.476;2024-01-25T07:12:25;7.17;;;2.40;;
12165;SDS011;6146;48.128;11.476;2024-01-25T07:14:50;5.93;;;2.53;;
12165;SDS011;6146;48.128;11.476;2024-01-25T07:17:16;8.07;;;2.87;;
12165;SDS011;6146;48.128;11.476;2024-01-25T07:19:41;9.77;;;2.70;;
12165;SDS011;6146;48.128;11.476;2024-01-25T07:22:07;6.73;;;2.47;;
12165;SDS011;6146;48.128;11.476;2024-01-25T07:24:32;12.93;;;2.93;;
12165;SDS011;6146;48.128;11.476;2024-01-25T07:26:58;9.67;;;2.43;;
12165;SDS011;6146;48.128;11.476;2024-01-25T07:29:24;6.27;;;2.27;;
12165;SDS011;6146;48.128;11.476;2024-01-25T07:31:49;4.80;;;3.03;;
12165;SDS011;6146;48.128;11.476;2024-01-25T07:34:15;7.87;;;2.77;;
12165;SDS011;6146;48.128;11.476;2024-01-25T07:36:40;5.97;;;2.23;;
12165;SDS011;6146;48.128;11.476;2024-01-25T07:39:06;8.63;;;2.43;;
12165;SDS011;6146;48.128;11.476;2024-01-25T07:41:33;10.67;;;2.97;;
12165;SDS011;6146;48.128;11.476;2024-01-25T07:43:58;8.67;;;2.97;;
12165;SDS011;6146;48.128;11.476;2024-01-25T07:46:24;7.77;;;2.50;;
12165;SDS011;6146;48.128;11.476;2024-01-25T07:48:50;7.50;;;2.40;;
12165;SDS011;6146;48.128;11.476;2024-01-25T07:51:15;8.00;;;2.43;;
12165;SDS011;6146;48.128;11.476;2024-01-25T07:53:41;6.33;;;2.53;;
12165;SDS011;6146;48.128;11.476;2024-01-25T07:56:07;8.43;;;2.60;;
12165;SDS011;6146;48.128;11.476;2024-01-25T07:58:33;7.73;;;2.90;;
12165;SDS011;6146;48.128;11.476;2024-01-25T08:01:02;6.13;;;2.73;;
12165;SDS011;6146;48.128;11.476;2024-01-25T08:03:29;6.53;;;2.40;;
12165;SDS011;6146;48.128;11.476;2024-01-25T08:05:54;8.47;;;2.50;;
12165;SDS011;6146;48.128;11.476;2024-01-25T08:08:20;10.00;;;2.93;;
12165;SDS011;6146;48.128;11.476;2024-01-25T08:10:45;8.30;;;2.90;;
12165;SDS011;6146;48.128;11.476;2024-01-25T08:13:12;13.00;;;3.67;;
12165;SDS011;6146;48.128;11.476;2024-01-25T08:15:37;10.43;;;2.93;;
12165;SDS011;6146;48.128;11.476;2024-01-25T08:18:03;10.97;;;2.90;;
12165;SDS011;6146;48.128;11.476;2024-01-25T08:20:29;11.43;;;3.00;;
12165;SDS011;6146;48.128;11.476;2024-01-25T08:22:54;10.07;;;3.10;;
12165;SDS011;6146;48.128;11.476;2024-01-25T08:25:20;10.17;;;3.57;;
12165;SDS011;6146;48.128;11.476;2024-01-25T08:27:45;7.17;;;2.77;;
12165;SDS011;6146;48.128;11.476;2024-01-25T08:30:11;8.37;;;2.60;;
12165;SDS011;6146;48.128;11.476;2024-01-25T08:32:37;10.23;;;2.87;;
12165;SDS011;6146;48.128;11.476;2024-01-25T08:35:02;9.57;;;2.93;;
12165;SDS011;6146;48.128;11.476;2024-01-25T08:37:28;5.70;;;2.33;;
12165;SDS011;6146;48.128;11.476;2024-01-25T08:39:54;6.90;;;2.90;;
12165;SDS011;6146;48.128;11.476;2024-01-25T08:42:20;9.97;;;3.07;;
12165;SDS011;6146;48.128;11.476;2024-01-25T08:44:46;6.47;;;2.93;;
12165;SDS011;6146;48.128;11.476;2024-01-25T08:47:14;8.47;;;3.17;;
12165;SDS011;6146;48.128;11.476;2024-01-25T08:49:43;7.30;;;2.67;;
12165;SDS011;6146;48.128;11.476;2024-01-25T08:52:08;6.67;;;2.43;;
12165;SDS011;6146;48.128;11.476;2024-01-25T08:54:34;6.00;;;2.60;;
12165;SDS011;6146;48.128;11.476;2024-01-25T08:57:02;6.43;;;3.00;;
12165;SDS011;6146;48.128;11.476;2024-01-25T08:59:28;7.13;;;2.50;;
12165;SDS011;6146;48.128;11.476;2024-01-25T09:01:57;6.60;;;2.63;;
12165;SDS011;6146;48.128;11.476;2024-01-25T09:04:23;10.50;;;3.03;;
12165;SDS011;6146;48.128;11.476;2024-01-25T09:06:48;8.37;;;3.27;;
12165;SDS011;6146;48.128;11.476;2024-01-25T09:09:14;9.70;;;2.83;;
12165;SDS011;6146;48.128;11.476;2024-01-25T09:11:39;8.87;;;3.00;;
12165;SDS011;6146;48.128;11.476;2024-01-25T09:14:05;7.60;;;3.23;;
12165;SDS011;6146;48.128;11.476;2024-01-25T09:16:30;7.83;;;2.90;;
12165;SDS011;6146;48.128;11.476;2024-01-25T09:18:56;6.47;;;2.63;;
12165;SDS011;6146;48.128;11.476;2024-01-25T09:21:21;8.90;;;3.20;;
12165;SDS011;6146;48.128;11.476;2024-01-25T09:23:47;8.83;;;3.60;;
12165;SDS011;6146;48.128;11.476;2024-01-25T09:26:12;8.90;;;3.10;;
12165;SDS011;6146;48.128;11.476;2024-01-25T09:28:38;8.93;;;2.97;;
12165;SDS011;6146;48.128;11.476;2024-01-25T09:31:03;11.57;;;3.23;;
12165;SDS011;6146;48.128;11.476;2024-01-25T09:33:29;7.97;;;3.00;;
12165;SDS011;6146;48.128;11.476;2024-01-25T09:35:55;11.60;;;3.67;;
12165;SDS011;6146;48.128;11.476;2024-01-25T09:38:21;9.60;;;3.27;;
12165;SDS011;6146;48.128;11.476;2024-01-25T09:40:47;10.30;;;2.97;;
12165;SDS011;6146;48.128;11.476;2024-01-25T09:43:13;6.27;;;2.43;;
12165;SDS011;6146;48.128;11.476;2024-01-25T09:45:39;9.77;;;2.80;;
12165;SDS011;6146;48.128;11.476;2024-01-25T09:48:07;7.20;;;2.90;;
12165;SDS011;6146;48.128;11.476;2024-01-25T09:50:32;5.50;;;3.00;;
12165;SDS011;6146;48.128;11.476;2024-01-25T09:52:58;7.80;;;3.00;;
12165;SDS011;6146;48.128;11.476;2024-01-25T09:55:25;6.73;;;2.40;;
12165;SDS011;6146;48.128;11.476;2024-01-25T09:57:54;5.93;;;2.40;;
12165;SDS011;6146;48.128;11.476;2024-01-25T10:00:21;5.57;;;2.63;;
12165;SDS011;6146;48.128;11.476;2024-01-25T10:02:48;6.10;;;2.87;;
12165;SDS011;6146;48.128;11.476;2024-01-25T10:05:14;6.33;;;2.90;;
12165;SDS011;6146;48.128;11.476;2024-01-25T10:07:41;6.67;;;2.93;;
12165;SDS011;6146;48.128;11.476;2024-01-25T10:10:08;8.63;;;3.27;;
12165;SDS011;6146;48.128;11.476;2024-01-25T10:12:36;14.63;;;3.73;;
12165;SDS011;6146;48.128;11.476;2024-01-25T10:15:03;7.83;;;3.10;;
12165;SDS011;6146;48.128;11.476;2024-01-25T10:17:30;7.63;;;3.23;;
12165;SDS011;6146;48.128;11.476;2024-01-25T10:19:55;7.43;;;3.13;;
12165;SDS011;6146;48.128;11.476;2024-01-25T10:22:21;7.17;;;3.37;;
12165;SDS011;6146;48.128;11.476;2024-01-25T10:24:47;8.33;;;2.80;;
12165;SDS011;6146;48.128;11.476;2024-01-25T10:27:15;9.83;;;3.73;;
12165;SDS011;6146;48.128;11.476;2024-01-25T10:29:41;13.17;;;3.33;;
12165;SDS011;6146;48.128;11.476;2024-01-25T10:32:08;8.63;;;3.40;;
12165;SDS011;6146;48.128;11.476;2024-01-25T10:34:37;7.17;;;3.30;;
12165;SDS011;6146;48.128;11.476;2024-01-25T10:37:03;9.37;;;3.37;;
12165;SDS011;6146;48.128;11.476;2024-01-25T10:39:31;12.23;;;3.93;;
12165;SDS011;6146;48.128;11.476;2024-01-25T10:41:58;10.53;;;3.13;;
12165;SDS011;6146;48.128;11.476;2024-01-25T10:44:24;10.93;;;3.57;;
12165;SDS011;6146;48.128;11.476;2024-01-25T10:46:50;9.70;;;3.53;;
12165;SDS011;6146;48.128;11.476;2024-01-25T10:49:17;10.97;;;3.37;;
12165;SDS011;6146;48.128;11.476;2024-01-25T10:51:43;8.57;;;3.50;;
12165;SDS011;6146;48.128;11.476;2024-01-25T10:54:12;15.97;;;4.60;;
12165;SDS011;6146;48.128;11.476;2024-01-25T10:56:41;11.97;;;3.63;;
12165;SDS011;6146;48.128;11.476;2024-01-25T10:59:08;11.97;;;3.53;;
12165;SDS011;6146;48.128;11.476;2024-01-25T11:01:35;7.00;;;3.17;;
12165;SDS011;6146;48.128;11.476;2024-01-25T11:04:01;10.77;;;3.23;;
12165;SDS011;6146;48.128;11.476;2024-01-25T11:06:27;9.47;;;3.50;;
12165;SDS011;6146;48.128;11.476;2024-01-25T11:09:05;9.97;;;3.03;;
12165;SDS011;6146;48.128;11.476;2024-01-25T11:11:32;11.60;;;3.30;;
12165;SDS011;6146;48.128;11.476;2024-01-25T11:13:58;10.83;;;3.20;;
12165;SDS011;6146;48.128;11.476;2024-01-25T11:16:28;8.67;;;3.30;;
12165;SDS011;6146;48.128;11.476;2024-01-25T11:18:55;6.10;;;2.43;;
12165;SDS011;6146;48.128;11.476;2024-01-25T11:24:11;10.53;;;2.77;;
12165;SDS011;6146;48.128;11.476;2024-01-25T11:26:40;8.87;;;3.20;;
12165;SDS011;6146;48.128;11.476;2024-01-25T11:29:18;7.63;;;3.40;;
12165;SDS011;6146;48.128;11.476;2024-01-25T11:31:46;9.00;;;3.10;;
12165;SDS011;6146;48.128;11.476;2024-01-25T11:34:13;7.23;;;2.90;;
12165;SDS011;6146;48.128;11.476;2024-01-25T11:36:40;7.03;;;3.10;;
12165;SDS011;6146;48.128;11.476;2024-01-25T11:39:06;5.67;;;2.90;;
12165;SDS011;6146;48.128;11.476;2024-01-25T11:41:34;6.30;;;3.10;;
12165;SDS011;6146;48.128;11.476;2024-01-25T11:44:01;5.77;;;2.77;;
12165;SDS011;6146;48.128;11.476;2024-01-25T11:46:27;7.90;;;3.50;;
12165;SDS011;6146;48.128;11.476;2024-01-25T11:48:53;6.57;;;2.00;;
12165;SDS011;6146;48.128;11.476;2024-01-25T11:51:18;7.03;;;3.00;;
12165;SDS011;6146;48.128;11.476;2024-01-25T11:53:44;7.13;;;3.03;;
12165;SDS011;6146;48.128;11.476;2024-01-25T11:56:10;7.47;;;2.73;;
12165;SDS011;6146;48.128;11.476;2024-01-25T11:58:41;5.07;;;2.33;;
12165;SDS011;6146;48.128;11.476;2024-01-25T12:01:08;7.60;;;2.50;;
12165;SDS011;6146;48.128;11.476;2024-01-25T12:03:35;7.37;;;2.60;;
12165;SDS011;6146;48.128;11.476;2024-01-25T12:06:04;5.83;;;2.57;;
12165;SDS011;6146;48.128;11.476;2024-01-25T12:08:33;4.80;;;2.43;;
12165;SDS011;6146;48.128;11.476;2024-01-25T12:11:03;5.77;;;2.93;;
12165;SDS011;6146;48.128;11.476;2024-01-25T12:13:33;9.43;;;3.87;;
12165;SDS011;6146;48.128;11.476;2024-01-25T12:16:08;4.87;;;2.27;;
12165;SDS011;6146;48.128;11.476;2024-01-25T12:18:35;8.97;;;3.70;;
12165;SDS011;6146;48.128;11.476;2024-01-25T12:21:02;5.00;;;3.17;;
12165;SDS011;6146;48.128;11.476;2024-01-25T12:23:38;7.87;;;2.97;;
12165;SDS011;6146;48.128;11.476;2024-01-25T12:26:08;8.70;;;3.20;;
12165;SDS011;6146;48.128;11.476;2024-01-25T12:28:35;5.47;;;3.40;;
12165;SDS011;6146;48.128;11.476;2024-01-25T12:31:05;8.23;;;2.93;;
12165;SDS011;6146;48.128;11.476;2024-01-25T12:33:31;8.00;;;3.13;;
12165;SDS011;6146;48.128;11.476;2024-01-25T12:35:58;7.53;;;3.17;;
12165;SDS011;6146;48.128;11.476;2024-01-25T12:38:24;9.57;;;3.07;;
12165;SDS011;6146;48.128;11.476;2024-01-25T12:40:51;10.47;;;3.40;;
12165;SDS011;6146;48.128;11.476;2024-01-25T12:43:17;7.97;;;3.50;;
12165;SDS011;6146;48.128;11.476;2024-01-25T12:45:43;7.37;;;3.30;;
12165;SDS011;6146;48.128;11.476;2024-01-25T12:48:09;11.70;;;3.63;;
12165;SDS011;6146;48.128;11.476;2024-01-25T12:50:35;5.63;;;2.83;;
12165;SDS011;6146;48.128;11.476;2024-01-25T12:53:01;6.73;;;2.40;;
12165;SDS011;6146;48.128;11.476;2024-01-25T12:55:30;5.00;;;2.33;;
12165;SDS011;6146;48.128;11.476;2024-01-25T12:57:56;7.13;;;2.87;;
12165;SDS011;6146;48.128;11.476;2024-01-25T13:00:23;8.03;;;2.90;;
12165;SDS011;6146;48.128;11.476;2024-01-25T13:02:49;7.33;;;3.07;;
12165;SDS011;6146;48.128;11.476;2024-01-25T13:05:14;6.50;;;3.10;;
12165;SDS011;6146;48.128;11.476;2024-01-25T13:07:40;7.57;;;2.63;;
12165;SDS011;6146;48.128;11.476;2024-01-25T13:10:06;6.33;;;2.40;;
12165;SDS011;6146;48.128;11.476;2024-01-25T13:12:33;7.40;;;2.30;;
12165;SDS011;6146;48.128;11.476;2024-01-25T13:14:59;6.13;;;2.33;;
12165;SDS011;6146;48.128;11.476;2024-01-25T13:17:24;5.87;;;2.10;;
12165;SDS011;6146;48.128;11.476;2024-01-25T13:19:52;5.20;;;2.20;;
12165;SDS011;6146;48.128;11.476;2024-01-25T13:22:18;6.87;;;2.90;;
12165;SDS011;6146;48.128;11.476;2024-01-25T13:24:46;8.27;;;2.27;;
12165;SDS011;6146;48.128;11.476;2024-01-25T13:27:11;5.27;;;2.20;;
12165;SDS011;6146;48.128;11.476;2024-01-25T13:29:37;7.17;;;2.23;;
12165;SDS011;6146;48.128;11.476;2024-01-25T13:32:02;5.33;;;1.90;;
12165;SDS011;6146;48.128;11.476;2024-01-25T13:34:28;4.17;;;2.07;;
12165;SDS011;6146;48.128;11.476;2024-01-25T13:36:54;5.40;;;2.20;;
12165;SDS011;6146;48.128;11.476;2024-01-25T13:39:19;4.57;;;2.30;;
12165;SDS011;6146;48.128;11.476;2024-01-25T13:41:45;5.60;;;2.37;;
12165;SDS011;6146;48.128;11.476;2024-01-25T13:44:11;5.63;;;2.23;;
12165;SDS011;6146;48.128;11.476;2024-01-25T13:46:38;7.63;;;2.63;;
12165;SDS011;6146;48.128;11.476;2024-01-25T13:49:04;5.23;;;2.37;;
12165;SDS011;6146;48.128;11.476;2024-01-25T13:51:29;7.07;;;2.70;;
12165;SDS011;6146;48.128;11.476;2024-01-25T13:53:55;5.63;;;2.00;;
12165;SDS011;6146;48.128;11.476;2024-01-25T13:56:21;9.13;;;2.70;;
12165;SDS011;6146;48.128;11.476;2024-01-25T13:58:46;6.67;;;2.70;;
12165;SDS011;6146;48.128;11.476;2024-01-25T14:01:12;5.57;;;2.20;;
12165;SDS011;6146;48.128;11.476;2024-01-25T14:03:37;5.03;;;2.40;;
12165;SDS011;6146;48.128;11.476;2024-01-25T14:06:03;4.97;;;2.00;;
12165;SDS011;6146;48.128;11.476;2024-01-25T14:08:29;5.50;;;2.00;;
12165;SDS011;6146;48.128;11.476;2024-01-25T14:10:56;6.63;;;2.30;;
12165;SDS011;6146;48.128;11.476;2024-01-25T14:13:22;5.63;;;2.17;;
12165;SDS011;6146;48.128;11.476;2024-01-25T14:15:47;9.40;;;2.67;;
12165;SDS011;6146;48.128;11.476;2024-01-25T14:18:13;6.10;;;2.00;;
12165;SDS011;6146;48.128;11.476;2024-01-25T14:20:39;6.30;;;2.43;;
12165;SDS011;6146;48.128;11.476;2024-01-25T14:23:04;7.17;;;2.60;;
12165;SDS011;6146;48.128;11.476;2024-01-25T14:25:30;4.37;;;2.30;;
12165;SDS011;6146;48.128;11.476;2024-01-25T14:27:55;7.67;;;2.80;;
12165;SDS011;6146;48.128;11.476;2024-01-25T14:30:21;6.23;;;2.30;;
12165;SDS011;6146;48.128;11.476;2024-01-25T14:32:47;6.63;;;2.40;;
12165;SDS011;6146;48.128;11.476;2024-01-25T14:35:12;9.40;;;2.40;;
12165;SDS011;6146;48.128;11.476;2024-01-25T14:37:38;9.17;;;2.30;;
12165;SDS011;6146;48.128;11.476;2024-01-25T14:40:04;5.47;;;2.40;;
12165;SDS011;6146;48.128;11.476;2024-01-25T14:42:30;7.73;;;2.53;;
12165;SDS011;6146;48.128;11.476;2024-01-25T14:44:55;6.97;;;2.63;;